Wetterdaten: Woche 28.06.04 - 04.07.04 (KW27)
Datum Zeit Temperatur Luftfeuchte Luftdruck Regenmenge Wind Richtung Taupunkt Windchill
28.06.2004 00:00 19.7 C 89 % 1021.5 hPa 0.0 l/m 5.2 km/h (1 Bft) O-SO 17.9 C 19.7 C
28.06.2004 01:00 19.0 C 93 % 1021.6 hPa 0.0 l/m 4.1 km/h (1 Bft) O-SO 17.9 C 19.0 C
28.06.2004 02:00 18.9 C 94 % 1021.7 hPa 0.0 l/m 5.8 km/h (1 Bft) O-SO 17.9 C 18.9 C
28.06.2004 03:00 18.8 C 93 % 1022.7 hPa 0.0 l/m 2.0 km/h (1 Bft) O-SO 17.5 C 18.8 C
28.06.2004 04:00 19.1 C 84 % 1022.7 hPa 0.0 l/m 3.6 km/h (1 Bft) O-SO 16.4 C 19.1 C
28.06.2004 05:00 19.1 C 84 % 1023.2 hPa 0.0 l/m 2.4 km/h (1 Bft) O-SO 16.2 C 19.1 C
28.06.2004 06:00 19.4 C 79 % 1023.7 hPa 0.0 l/m 0.0 km/h (0 Bft) N 15.7 C 19.4 C
28.06.2004 07:00 20.2 C 74 % 1023.6 hPa 0.0 l/m 6.2 km/h (2 Bft) NW 15.5 C 20.2 C
28.06.2004 08:00 20.4 C 73 % 1024.2 hPa 0.0 l/m 8.4 km/h (2 Bft) NW 15.3 C 20.4 C
28.06.2004 09:00 21.3 C 73 % 1024.5 hPa 0.0 l/m 1.2 km/h (1 Bft) O-SO 16.2 C 21.3 C
28.06.2004 10:00 21.9 C 67 % 1024.4 hPa 0.0 l/m 3.7 km/h (1 Bft) O-SO 15.6 C 21.9 C
28.06.2004 11:00 21.9 C 61 % 1024.4 hPa 0.0 l/m 9.2 km/h (2 Bft) NW 14.1 C 21.9 C
28.06.2004 12:00 22.8 C 52 % 1024.3 hPa 0.0 l/m 14.1 km/h (3 Bft) NW 12.2 C 22.8 C
28.06.2004 13:00 24.6 C 42 % 1024.0 hPa 0.0 l/m 20.2 km/h (4 Bft) NW 10.8 C 24.6 C
28.06.2004 14:00 25.7 C 37 % 1023.9 hPa 0.0 l/m 22.6 km/h (4 Bft) NW 9.9 C 25.7 C
28.06.2004 15:00 26.0 C 34 % 1023.0 hPa 0.0 l/m 20.0 km/h (4 Bft) NW 8.7 C 26.0 C
28.06.2004 16:00 25.8 C 32 % 1022.8 hPa 0.0 l/m 15.5 km/h (3 Bft) NW 8.0 C 25.8 C
28.06.2004 17:00 26.0 C 32 % 1022.8 hPa 0.0 l/m 13.6 km/h (3 Bft) NW 7.8 C 26.0 C
28.06.2004 18:00 26.3 C 36 % 1022.0 hPa 0.0 l/m 5.4 km/h (1 Bft) NW 10.0 C 26.3 C
28.06.2004 19:00 24.7 C 37 % 1021.9 hPa 0.0 l/m 6.1 km/h (2 Bft) NW 9.0 C 24.7 C
28.06.2004 20:00 23.2 C 45 % 1022.1 hPa 0.0 l/m 7.1 km/h (2 Bft) NW 10.4 C 23.2 C
28.06.2004 21:00 20.0 C 55 % 1023.4 hPa 0.0 l/m 1.9 km/h (1 Bft) N 10.6 C 20.0 C
28.06.2004 22:00 18.1 C 64 % 1023.8 hPa 0.0 l/m 1.4 km/h (1 Bft) NW 11.1 C 18.1 C
28.06.2004 23:00 16.2 C 73 % 1024.5 hPa 0.0 l/m 4.7 km/h (1 Bft) O-SO 11.3 C 16.2 C
29.06.2004 00:00 14.7 C 82 % 1025.3 hPa 0.0 l/m 1.7 km/h (1 Bft) O-SO 11.7 C 14.7 C
29.06.2004 01:00 13.9 C 88 % 1025.4 hPa 0.0 l/m 0.3 km/h (0 Bft) O-SO 11.9 C 13.9 C
29.06.2004 02:00 13.6 C 90 % 1025.5 hPa 0.0 l/m 0.0 km/h (0 Bft) N 11.9 C 13.6 C
29.06.2004 03:00 13.8 C 88 % 1025.4 hPa 0.0 l/m 1.6 km/h (1 Bft) O-SO 11.9 C 13.8 C
29.06.2004 04:00 13.1 C 90 % 1025.5 hPa 0.0 l/m 0.0 km/h (0 Bft) O-SO 11.5 C 13.1 C
29.06.2004 05:00 11.6 C 94 % 1025.7 hPa 0.0 l/m 1.5 km/h (1 Bft) O-SO 10.7 C 11.6 C
29.06.2004 06:00 11.7 C 94 % 1025.7 hPa 0.0 l/m 0.4 km/h (0 Bft) O-SO 10.7 C 11.7 C
29.06.2004 07:00 13.6 C 81 % 1025.5 hPa 0.0 l/m 0.5 km/h (0 Bft) NW 10.4 C 13.6 C
29.06.2004 08:00 15.1 C 68 % 1025.5 hPa 0.0 l/m 0.1 km/h (0 Bft) NW 9.2 C 15.1 C
29.06.2004 09:00 17.0 C 57 % 1026.1 hPa 0.0 l/m 0.0 km/h (0 Bft) N 8.5 C 17.0 C
29.06.2004 10:00 19.5 C 51 % 1025.4 hPa 0.0 l/m 3.8 km/h (1 Bft) O-SO 9.1 C 19.5 C
29.06.2004 11:00 21.1 C 42 % 1024.5 hPa 0.0 l/m 4.9 km/h (1 Bft) NW 7.7 C 21.1 C
29.06.2004 12:00 22.2 C 38 % 1024.3 hPa 0.0 l/m 9.7 km/h (2 Bft) NW 7.0 C 22.2 C
29.06.2004 13:00 23.4 C 29 % 1023.4 hPa 0.0 l/m 10.3 km/h (2 Bft) NW 4.5 C 23.4 C
29.06.2004 14:00 24.4 C 25 % 1023.0 hPa 0.0 l/m 12.6 km/h (3 Bft) NW 3.2 C 24.4 C
29.06.2004 15:00 25.7 C 25 % 1022.8 hPa 0.0 l/m 11.4 km/h (2 Bft) NW 4.4 C 25.7 C
29.06.2004 16:00 26.0 C 26 % 1021.8 hPa 0.0 l/m 15.1 km/h (3 Bft) NW 5.1 C 26.0 C
29.06.2004 17:00 26.1 C 29 % 1021.8 hPa 0.0 l/m 15.5 km/h (3 Bft) NW 6.6 C 26.1 C
29.06.2004 18:00 25.0 C 34 % 1021.9 hPa 0.0 l/m 12.7 km/h (3 Bft) NW 8.0 C 25.0 C
29.06.2004 19:00 24.1 C 34 % 1022.0 hPa 0.0 l/m 11.1 km/h (2 Bft) NW 7.4 C 24.1 C
29.06.2004 20:00 22.6 C 37 % 1022.2 hPa 0.0 l/m 2.4 km/h (1 Bft) NW 7.3 C 22.6 C
29.06.2004 21:00 19.1 C 50 % 1022.7 hPa 0.0 l/m 3.1 km/h (1 Bft) O 8.5 C 19.1 C
29.06.2004 22:00 15.9 C 67 % 1023.1 hPa 0.0 l/m 5.2 km/h (1 Bft) O-SO 9.6 C 15.9 C
29.06.2004 23:00 13.9 C 74 % 1023.4 hPa 0.0 l/m 0.3 km/h (0 Bft) O-SO 9.4 C 13.9 C
30.06.2004 00:00 12.9 C 80 % 1023.5 hPa 0.0 l/m 0.4 km/h (0 Bft) O-SO 9.5 C 12.9 C
30.06.2004 01:00 12.1 C 84 % 1023.6 hPa 0.0 l/m 0.2 km/h (0 Bft) O-SO 9.5 C 12.1 C
30.06.2004 02:00 11.3 C 88 % 1023.7 hPa 0.0 l/m 1.8 km/h (1 Bft) O-SO 9.4 C 11.3 C
30.06.2004 03:00 11.1 C 89 % 1023.7 hPa 0.0 l/m 0.1 km/h (0 Bft) O-SO 9.3 C 11.1 C
30.06.2004 04:00 9.7 C 93 % 1022.9 hPa 0.0 l/m 0.3 km/h (0 Bft) N 8.7 C 9.7 C
30.06.2004 05:00 9.5 C 96 % 1022.9 hPa 0.0 l/m 0.5 km/h (0 Bft) O-SO 8.8 C 9.5 C
30.06.2004 06:00 9.6 C 94 % 1021.9 hPa 0.0 l/m 1.2 km/h (1 Bft) O 8.7 C 9.6 C
30.06.2004 07:00 11.9 C 84 % 1021.2 hPa 0.0 l/m 0.2 km/h (0 Bft) N-NO 9.3 C 11.9 C
30.06.2004 08:00 14.4 C 71 % 1020.2 hPa 0.0 l/m 0.3 km/h (0 Bft) N 9.1 C 14.4 C
30.06.2004 09:00 17.4 C 56 % 1019.8 hPa 0.0 l/m 0.9 km/h (0 Bft) N-NW 8.5 C 17.4 C
30.06.2004 10:00 20.3 C 50 % 1019.3 hPa 0.0 l/m 6.0 km/h (2 Bft) O-SO 9.4 C 20.3 C
30.06.2004 11:00 22.6 C 43 % 1018.1 hPa 0.0 l/m 5.4 km/h (1 Bft) O-SO 9.2 C 22.6 C
30.06.2004 12:00 24.7 C 34 % 1017.8 hPa 0.0 l/m 4.0 km/h (1 Bft) O-SO 7.5 C 24.7 C
30.06.2004 13:00 26.3 C 28 % 1016.7 hPa 0.0 l/m 3.1 km/h (1 Bft) NW 6.4 C 26.3 C
30.06.2004 14:00 28.0 C 25 % 1016.1 hPa 0.0 l/m 2.6 km/h (1 Bft) O-SO 6.2 C 28.0 C
30.06.2004 15:00 28.8 C 26 % 1015.2 hPa 0.0 l/m 5.1 km/h (1 Bft) O-SO 7.4 C 28.8 C
30.06.2004 16:00 29.3 C 26 % 1014.3 hPa 0.0 l/m 7.1 km/h (2 Bft) O-SO 7.8 C 29.3 C
30.06.2004 17:00 29.0 C 26 % 1013.9 hPa 0.0 l/m 2.6 km/h (1 Bft) O-SO 7.5 C 29.0 C
30.06.2004 18:00 28.8 C 26 % 1013.1 hPa 0.0 l/m 1.8 km/h (1 Bft) N-NO 7.4 C 28.8 C
30.06.2004 19:00 26.5 C 34 % 1013.4 hPa 0.0 l/m 0.0 km/h (0 Bft) N 9.0 C 26.5 C
30.06.2004 20:00 22.7 C 50 % 1013.9 hPa 0.0 l/m 3.3 km/h (1 Bft) NW 11.7 C 22.7 C
30.06.2004 21:00 21.3 C 54 % 1014.1 hPa 0.0 l/m 8.3 km/h (2 Bft) O-SO 11.5 C 21.3 C
30.06.2004 22:00 19.2 C 61 % 1014.3 hPa 0.0 l/m 5.4 km/h (1 Bft) O-SO 11.5 C 19.2 C
30.06.2004 23:00 17.6 C 69 % 1014.6 hPa 0.0 l/m 6.0 km/h (2 Bft) O-SO 11.9 C 17.6 C
01.07.2004 00:00 16.4 C 74 % 1015.0 hPa 0.0 l/m 3.3 km/h (1 Bft) O-SO 11.8 C 16.4 C
01.07.2004 01:00 15.1 C 79 % 1014.9 hPa 0.0 l/m 1.8 km/h (1 Bft) O-SO 11.5 C 15.1 C
01.07.2004 02:00 14.1 C 86 % 1014.7 hPa 0.0 l/m 3.4 km/h (1 Bft) O-SO 11.8 C 14.1 C
01.07.2004 03:00 13.0 C 91 % 1014.1 hPa 0.0 l/m 1.0 km/h (0 Bft) O-SO 11.5 C 13.0 C
01.07.2004 04:00 12.6 C 95 % 1014.2 hPa 0.0 l/m 0.8 km/h (0 Bft) O-SO 11.8 C 12.6 C
01.07.2004 05:00 12.1 C 96 % 1014.2 hPa 0.0 l/m 0.7 km/h (0 Bft) O-SO 11.4 C 12.1 C
01.07.2004 06:00 13.5 C 93 % 1014.1 hPa 0.0 l/m 1.6 km/h (1 Bft) O-SO 12.4 C 13.5 C
01.07.2004 07:00 15.5 C 84 % 1013.8 hPa 0.0 l/m 3.1 km/h (1 Bft) O-SO 12.9 C 15.5 C
01.07.2004 08:00 18.1 C 63 % 1014.5 hPa 0.0 l/m 6.5 km/h (2 Bft) NW 10.8 C 18.1 C
01.07.2004 09:00 19.2 C 50 % 1014.7 hPa 0.0 l/m 24.8 km/h (4 Bft) NW 8.4 C 19.2 C
01.07.2004 10:00 19.4 C 47 % 1015.4 hPa 0.0 l/m 24.1 km/h (4 Bft) NW 7.7 C 19.4 C
01.07.2004 11:00 19.5 C 50 % 1016.3 hPa 0.0 l/m 24.1 km/h (4 Bft) NW 8.8 C 19.5 C
01.07.2004 12:00 20.1 C 49 % 1016.3 hPa 0.0 l/m 30.8 km/h (5 Bft) NW 9.0 C 20.1 C
01.07.2004 13:00 20.8 C 41 % 1016.2 hPa 0.0 l/m 29.3 km/h (5 Bft) NW 7.0 C 20.8 C
01.07.2004 14:00 21.1 C 42 % 1015.3 hPa 0.0 l/m 23.6 km/h (4 Bft) NW 7.8 C 21.1 C
01.07.2004 15:00 21.7 C 44 % 1015.5 hPa 0.0 l/m 21.7 km/h (4 Bft) NW 8.9 C 21.7 C
01.07.2004 16:00 21.3 C 44 % 1015.1 hPa 0.0 l/m 27.7 km/h (4 Bft) NW 8.5 C 21.3 C
01.07.2004 17:00 21.2 C 44 % 1015.1 hPa 0.0 l/m 27.5 km/h (4 Bft) NW 8.4 C 21.2 C
01.07.2004 18:00 20.3 C 46 % 1015.2 hPa 0.0 l/m 28.1 km/h (4 Bft) NW 8.5 C 20.3 C
01.07.2004 19:00 19.4 C 48 % 1016.0 hPa 0.0 l/m 22.0 km/h (4 Bft) NW 8.0 C 19.4 C
01.07.2004 20:00 18.6 C 51 % 1016.5 hPa 0.0 l/m 8.8 km/h (2 Bft) NW 8.3 C 18.6 C
01.07.2004 21:00 17.9 C 57 % 1016.6 hPa 0.0 l/m 2.7 km/h (1 Bft) NW 9.4 C 17.9 C
01.07.2004 22:00 17.5 C 60 % 1016.6 hPa 0.0 l/m 3.5 km/h (1 Bft) NW 9.7 C 17.5 C
01.07.2004 23:00 16.4 C 65 % 1016.8 hPa 0.0 l/m 0.8 km/h (0 Bft) W-NW 9.8 C 16.4 C
02.07.2004 00:00 15.0 C 74 % 1017.0 hPa 0.0 l/m 4.3 km/h (1 Bft) O-SO 10.4 C 15.0 C
02.07.2004 01:00 13.8 C 81 % 1017.0 hPa 0.0 l/m 4.9 km/h (1 Bft) O-SO 10.5 C 13.8 C
02.07.2004 02:00 13.4 C 83 % 1016.2 hPa 0.0 l/m 0.5 km/h (0 Bft) O-SO 10.6 C 13.4 C
02.07.2004 03:00 13.6 C 85 % 1016.1 hPa 0.0 l/m 0.8 km/h (0 Bft) O-SO 11.1 C 13.6 C
02.07.2004 04:00 13.6 C 87 % 1015.3 hPa 0.0 l/m 1.1 km/h (1 Bft) O-SO 11.5 C 13.6 C
02.07.2004 05:00 13.4 C 89 % 1015.1 hPa 0.0 l/m 0.9 km/h (0 Bft) O-SO 11.6 C 13.4 C
02.07.2004 06:00 13.3 C 96 % 1015.4 hPa 0.0 l/m 0.2 km/h (0 Bft) O-SO 12.6 C 13.3 C
02.07.2004 07:00 13.5 C 97 % 1015.7 hPa 0.6 l/m 1.0 km/h (0 Bft) O-SO 13.0 C 13.5 C
02.07.2004 08:00 14.3 C 95 % 1016.5 hPa 0.3 l/m 0.4 km/h (0 Bft) NW 13.6 C 14.3 C
02.07.2004 09:00 14.5 C 86 % 1017.0 hPa 0.0 l/m 7.6 km/h (2 Bft) NW 12.2 C 14.5 C
02.07.2004 10:00 15.1 C 77 % 1017.8 hPa 0.0 l/m 12.4 km/h (3 Bft) NW 11.1 C 15.1 C
02.07.2004 11:00 16.0 C 73 % 1017.9 hPa 0.0 l/m 15.6 km/h (3 Bft) NW 11.0 C 16.0 C
02.07.2004 12:00 17.8 C 56 % 1017.6 hPa 0.0 l/m 28.1 km/h (4 Bft) NW 8.8 C 17.8 C
02.07.2004 13:00 19.1 C 48 % 1017.1 hPa 0.0 l/m 26.7 km/h (4 Bft) NW 7.9 C 19.1 C
02.07.2004 14:00 21.0 C 39 % 1016.2 hPa 0.0 l/m 24.3 km/h (4 Bft) NW 6.3 C 21.0 C
02.07.2004 15:00 21.6 C 37 % 1016.1 hPa 0.0 l/m 25.9 km/h (4 Bft) NW 6.1 C 21.6 C
02.07.2004 16:00 22.0 C 35 % 1016.1 hPa 0.0 l/m 26.4 km/h (4 Bft) NW 5.7 C 22.0 C
02.07.2004 17:00 22.6 C 32 % 1016.0 hPa 0.0 l/m 28.9 km/h (5 Bft) NW 4.9 C 22.6 C
02.07.2004 18:00 22.5 C 36 % 1016.0 hPa 0.0 l/m 18.7 km/h (3 Bft) NW 6.8 C 22.5 C
02.07.2004 19:00 20.6 C 40 % 1016.7 hPa 0.0 l/m 19.1 km/h (3 Bft) NW 6.5 C 20.6 C
02.07.2004 20:00 18.9 C 53 % 1017.5 hPa 0.0 l/m 17.7 km/h (3 Bft) NW 9.0 C 18.9 C
02.07.2004 21:00 17.8 C 56 % 1018.1 hPa 0.0 l/m 11.0 km/h (2 Bft) NW 8.7 C 17.8 C
02.07.2004 22:00 15.9 C 63 % 1018.9 hPa 0.0 l/m 1.9 km/h (1 Bft) W-NW 8.8 C 15.9 C
02.07.2004 23:00 14.2 C 71 % 1019.6 hPa 0.0 l/m 1.7 km/h (1 Bft) SO 9.1 C 14.2 C
03.07.2004 00:00 14.2 C 76 % 1020.2 hPa 1.5 l/m 0.7 km/h (0 Bft) NO 10.0 C 14.2 C
03.07.2004 01:00 13.0 C 93 % 1020.4 hPa 0.0 l/m 6.1 km/h (2 Bft) O-SO 11.8 C 13.0 C
03.07.2004 02:00 12.1 C 98 % 1019.7 hPa 0.0 l/m 2.6 km/h (1 Bft) O-SO 11.8 C 12.1 C
03.07.2004 03:00 11.1 C 100 % 1019.6 hPa 0.3 l/m 3.0 km/h (1 Bft) O-SO 11.0 C 11.1 C
03.07.2004 04:00 10.4 C 100 % 1019.7 hPa 0.0 l/m 0.0 km/h (0 Bft) N 10.4 C 10.4 C
03.07.2004 05:00 11.5 C 100 % 1019.5 hPa 0.0 l/m 0.3 km/h (0 Bft) O-NO 11.5 C 11.5 C
03.07.2004 06:00 13.4 C 100 % 1019.3 hPa 0.0 l/m 0.0 km/h (0 Bft) N 13.4 C 13.4 C
03.07.2004 07:00 14.0 C 100 % 1019.2 hPa 0.0 l/m 0.3 km/h (0 Bft) W-NW 14.0 C 14.0 C
03.07.2004 08:00 15.4 C 96 % 1019.0 hPa 0.0 l/m 0.4 km/h (0 Bft) W-NW 14.8 C 15.4 C
03.07.2004 09:00 16.6 C 73 % 1019.2 hPa 0.0 l/m 21.1 km/h (4 Bft) NW 11.7 C 16.6 C
03.07.2004 10:00 17.5 C 58 % 1019.8 hPa 0.0 l/m 29.1 km/h (5 Bft) NW 9.2 C 17.5 C
03.07.2004 11:00 18.1 C 53 % 1019.7 hPa 0.0 l/m 29.9 km/h (5 Bft) NW 8.3 C 18.1 C
03.07.2004 12:00 19.3 C 46 % 1019.5 hPa 0.0 l/m 34.9 km/h (5 Bft) NW 7.3 C 19.3 C
03.07.2004 13:00 20.5 C 42 % 1019.4 hPa 0.0 l/m 34.8 km/h (5 Bft) NW 7.0 C 20.5 C
03.07.2004 14:00 21.5 C 38 % 1018.2 hPa 0.0 l/m 35.0 km/h (5 Bft) NW 6.5 C 21.5 C
03.07.2004 19:00 22.0 C 33 % 1017.7 hPa 0.0 l/m 19.8 km/h (4 Bft) NW 3.2 C 22.0 C
03.07.2004 20:00 20.6 C 40 % 1017.3 hPa 0.0 l/m 18.6 km/h (3 Bft) NW 6.6 C 20.6 C
03.07.2004 21:00 18.0 C 46 % 1017.8 hPa 0.0 l/m 9.1 km/h (2 Bft) NW 6.2 C 18.0 C
03.07.2004 22:00 16.0 C 54 % 1020.0 hPa 0.0 l/m 0.1 km/h (0 Bft) N 6.7 C 16.0 C
03.07.2004 23:00 14.3 C 63 % 1021.2 hPa 0.0 l/m 0.2 km/h (0 Bft) NW 7.4 C 14.3 C
04.07.2004 00:00 13.2 C 71 % 1021.4 hPa 0.0 l/m 2.2 km/h (1 Bft) NW 8.0 C 13.2 C
04.07.2004 01:00 11.5 C 80 % 1021.6 hPa 0.0 l/m 1.8 km/h (1 Bft) NW 8.2 C 11.5 C
04.07.2004 02:00 10.6 C 84 % 1021.7 hPa 0.0 l/m 0.4 km/h (0 Bft) W-NW 8.0 C 10.6 C
04.07.2004 03:00 9.6 C 90 % 1021.9 hPa 0.0 l/m 0.0 km/h (0 Bft) N 8.1 C 9.6 C
04.07.2004 04:00 9.3 C 94 % 1021.9 hPa 0.0 l/m 0.1 km/h (0 Bft) W-NW 8.3 C 9.3 C
04.07.2004 05:00 8.5 C 96 % 1022.0 hPa 0.0 l/m 0.2 km/h (0 Bft) W-NW 7.9 C 8.5 C
04.07.2004 06:00 8.7 C 95 % 1021.9 hPa 0.0 l/m 0.0 km/h (0 Bft) N 8.0 C 8.7 C
04.07.2004 07:00 10.5 C 87 % 1021.5 hPa 0.0 l/m 0.0 km/h (0 Bft) N 8.5 C 10.5 C
04.07.2004 08:00 12.6 C 75 % 1020.4 hPa 0.0 l/m 0.0 km/h (0 Bft) N 8.2 C 12.6 C
04.07.2004 09:00 15.4 C 64 % 1020.0 hPa 0.0 l/m 0.9 km/h (0 Bft) N-NO 8.5 C 15.4 C
04.07.2004 10:00 18.8 C 52 % 1019.1 hPa 0.0 l/m 2.6 km/h (1 Bft) O-NO 8.6 C 18.8 C
04.07.2004 11:00 21.4 C 43 % 1018.2 hPa 0.0 l/m 7.3 km/h (2 Bft) O-SO 8.2 C 21.4 C
04.07.2004 12:00 22.9 C 36 % 1018.0 hPa 0.0 l/m 6.4 km/h (2 Bft) NW 7.1 C 22.9 C
04.07.2004 13:00 24.0 C 33 % 1017.2 hPa 0.0 l/m 2.1 km/h (1 Bft) O 6.8 C 24.0 C
04.07.2004 14:00 25.7 C 31 % 1016.3 hPa 0.0 l/m 5.2 km/h (1 Bft) O-SO 7.3 C 25.7 C
04.07.2004 15:00 27.1 C 28 % 1015.4 hPa 0.0 l/m 5.4 km/h (1 Bft) NW 7.0 C 27.1 C
04.07.2004 16:00 28.1 C 27 % 1014.4 hPa 0.0 l/m 7.9 km/h (2 Bft) NW 7.0 C 28.1 C
04.07.2004 17:00 28.6 C 27 % 1014.2 hPa 0.0 l/m 8.1 km/h (2 Bft) NW 7.9 C 28.6 C
04.07.2004 18:00 27.6 C 30 % 1014.3 hPa 0.0 l/m 3.9 km/h (1 Bft) NW 8.3 C 27.6 C
04.07.2004 19:00 26.4 C 36 % 1014.5 hPa 0.0 l/m 5.7 km/h (1 Bft) NW 10.0 C 26.4 C
04.07.2004 20:00 24.4 C 43 % 1014.7 hPa 0.0 l/m 5.0 km/h (1 Bft) NW 10.8 C 24.4 C
04.07.2004 21:00 21.4 C 52 % 1015.4 hPa 0.0 l/m 4.3 km/h (1 Bft) O-SO 11.3 C 21.4 C
04.07.2004 22:00 19.3 C 60 % 1016.3 hPa 0.0 l/m 6.2 km/h (2 Bft) O-SO 11.3 C 19.3 C
04.07.2004 23:00 17.1 C 71 % 1016.6 hPa 0.0 l/m 4.6 km/h (1 Bft) O-SO 11.9 C 17.1 C
Min-Datum _ 04.07.04 29.06.04 30.06.04 - 28.06.04 - 29.06.04 04.07.04
_ Min-Zeit 05:50 13:44 18:18 - 00:53 - 13:44 05:50
Minimum _ 8.0 C 25 % 1013.1 hPa - 0.0 km/h (0 Bft) - 2.0 C 8.0 C
Max-Datum _ 30.06.04 03.07.04 29.06.04 03.07.04 03.07.04 - 28.06.04 30.06.04
_ Max-Zeit 16:29 03:11 08:05 00:53 11:29 - 01:44 16:29
Maximum _ 29.6 C 100 % 1026.4 hPa 1.5 l/m 52.7 km/h
NW (7 Bft)
- 18.2 C 29.6 C
Durchschnitt _ 18.4 C 62 % 1019.3 hPa #2.8 l/m 7.9 km/h (2 Bft) NW 9.7 C 18.4 C

Durchschnitt Minimum Temp.17.5 C
Durchschnitt Maximum Temp.19.4 C
© Kaiko 2004